Time;durP1;ratioP1;P1;durP2;ratioP2;P2;SDS_P1;SDS_P2;PMS_P1;PMS_P2;Temp;Humidity;BMP_temperature;BMP_pressure;BME280_temperature;BME280_humidity;BME280_pressure;Samples;Min_cycle;Max_cycle;Signal;HPM_P1;HPM_P2
2022/12/02 06:02:37;;;;;;;45.72;17.40;;;;;;;3.87;99.35;102548.28;1536557;22;20042;-76
2022/12/02 06:05:28;;;;;;;49.00;18.15;;;;;;;3.87;100.00;102553.81;5027880;28;20444;-76
2022/12/02 06:07:57;;;;;;;59.17;22.45;;;;;;;3.76;99.16;102557.00;5021918;28;20041;-76
2022/12/02 06:10:31;;;;;;;51.40;19.98;;;;;;;3.93;100.00;102548.25;5018310;28;20480;-76
2022/12/02 06:13:00;;;;;;;43.60;18.48;;;;;;;4.05;100.00;102557.00;5036592;23;20833;-76
2022/12/02 06:15:33;;;;;;;46.65;20.08;;;;;;;3.94;100.00;102552.66;4978977;28;20054;-75
2022/12/02 06:17:59;;;;;;;49.28;18.55;;;;;;;3.97;100.00;102554.88;4979529;28;20042;-76
2022/12/02 06:20:29;;;;;;;49.80;19.55;;;;;;;3.97;100.00;102561.22;4984311;28;20026;-75
2022/12/02 06:22:55;;;;;;;51.72;18.75;;;;;;;3.58;100.00;102547.44;4980625;28;20046;-75
2022/12/02 06:25:24;;;;;;;51.13;21.67;;;;;;;4.00;100.00;102554.28;4983603;28;20026;-76
2022/12/02 06:27:53;;;;;;;54.33;19.10;;;;;;;4.04;100.00;102549.78;4985513;28;20022;-76
2022/12/02 06:30:18;;;;;;;52.05;18.15;;;;;;;4.09;100.00;102552.53;4985718;28;20026;-76
2022/12/02 06:32:52;;;;;;;46.17;17.50;;;;;;;4.17;100.00;102554.63;4973340;28;20026;-76
2022/12/02 06:35:25;;;;;;;50.97;20.38;;;;;;;4.18;100.00;102550.75;4972644;28;20373;-75
2022/12/02 06:37:55;;;;;;;53.47;18.58;;;;;;;4.16;100.00;102558.53;4995505;28;20065;-76
2022/12/02 06:40:35;;;;;;;49.75;18.65;;;;;;;3.85;100.00;102553.28;4964493;28;20030;-77
2022/12/02 06:43:10;;;;;;;52.33;20.55;;;;;;;4.07;100.00;102549.22;4971182;28;20030;-77
2022/12/02 06:45:35;;;;;;;52.35;19.70;;;;;;;3.90;100.00;102543.28;4983466;28;20074;-75
2022/12/02 06:48:23;;;;;;;57.95;21.63;;;;;;;3.77;100.00;102544.78;4970779;28;20475;-76
2022/12/02 06:50:49;;;;;;;48.90;19.60;;;;;;;3.92;100.00;102546.59;4976277;28;20021;-75
2022/12/02 06:53:36;;;;;;;49.75;21.27;;;;;;;4.14;100.00;102555.25;4981163;28;20030;-75
2022/12/02 06:56:24;;;;;;;49.85;19.33;;;;;;;4.01;100.00;102545.66;4977059;28;20040;-75
2022/12/02 06:58:54;;;;;;;54.85;21.60;;;;;;;3.95;100.00;102557.09;4974279;28;20033;-75
2022/12/02 07:01:41;;;;;;;61.75;20.58;;;;;;;4.02;100.00;102563.13;4955294;28;20382;-75
2022/12/02 07:04:31;;;;;;;62.58;21.55;;;;;;;4.09;100.00;102569.16;4974399;28;20191;-74
2022/12/02 07:07:01;;;;;;;59.83;21.58;;;;;;;3.70;99.53;102567.28;4955013;28;20038;-75
2022/12/02 07:09:39;;;;;;;56.30;21.20;;;;;;;3.76;100.00;102559.78;4954133;28;20417;-74
2022/12/02 07:12:24;;;;;;;59.30;21.85;;;;;;;3.92;100.00;102561.28;4959079;28;20041;-74
2022/12/02 07:14:51;;;;;;;55.95;19.75;;;;;;;3.97;100.00;102571.50;4958519;28;20049;-75
2022/12/02 07:17:22;;;;;;;55.95;20.98;;;;;;;4.22;100.00;102568.47;4975125;28;20030;-74
2022/12/02 07:19:53;;;;;;;48.45;19.08;;;;;;;3.90;100.00;102565.44;4958043;28;20524;-76
2022/12/02 07:22:22;;;;;;;60.25;24.00;;;;;;;4.07;99.28;102571.41;4961296;28;20034;-75
2022/12/02 07:25:00;;;;;;;63.88;22.30;;;;;;;4.07;99.17;102576.94;4965514;28;20082;-76
2022/12/02 07:27:32;;;;;;;68.47;25.48;;;;;;;4.10;99.09;102581.06;4963193;28;20062;-74
2022/12/02 07:29:59;;;;;;;63.65;23.00;;;;;;;3.95;99.08;102576.50;4953923;28;20034;-74
2022/12/02 07:32:24;;;;;;;64.97;22.95;;;;;;;4.03;98.92;102586.94;4956734;28;20077;-74
2022/12/02 07:34:50;;;;;;;54.53;20.77;;;;;;;3.99;98.88;102581.16;4960386;28;20414;-74
2022/12/02 07:37:15;;;;;;;63.33;22.90;;;;;;;4.35;100.00;102579.97;4962773;28;20036;-74
2022/12/02 07:39:41;;;;;;;56.95;21.60;;;;;;;3.94;98.69;102580.38;4961809;28;20046;-74
2022/12/02 07:42:06;;;;;;;64.68;22.73;;;;;;;3.83;100.00;102571.31;4960544;28;20069;-75
2022/12/02 07:44:32;;;;;;;63.25;22.08;;;;;;;3.77;100.00;102576.06;4961683;28;20133;-74
2022/12/02 07:46:57;;;;;;;63.97;22.92;;;;;;;3.77;100.00;102573.31;4955396;28;20169;-74
2022/12/02 07:49:23;;;;;;;60.75;24.13;;;;;;;3.71;99.88;102574.50;4964404;28;20027;-74
2022/12/02 07:51:48;;;;;;;65.82;21.35;;;;;;;3.72;100.00;102576.13;4963534;28;20042;-75
2022/12/02 07:54:13;;;;;;;55.60;21.17;;;;;;;3.75;100.00;102575.53;4965677;28;20029;-74
2022/12/02 07:56:39;;;;;;;51.03;21.05;;;;;;;3.86;100.00;102579.91;4962787;28;20544;-75
2022/12/02 07:59:04;;;;;;;62.22;21.30;;;;;;;3.86;100.00;102577.13;4964832;28;20023;-74
2022/12/02 08:01:30;;;;;;;60.97;22.38;;;;;;;3.92;100.00;102569.59;4960685;28;20042;-75
2022/12/02 08:03:55;;;;;;;61.00;21.52;;;;;;;3.70;100.00;102575.59;4958782;28;20047;-75
2022/12/02 08:06:20;;;;;;;57.03;20.98;;;;;;;3.86;100.00;102582.66;4980611;28;20054;-75
2022/12/02 08:08:46;;;;;;;62.15;22.08;;;;;;;3.84;100.00;102590.44;4968442;28;20146;-74
2022/12/02 08:11:11;;;;;;;62.35;24.00;;;;;;;3.73;100.00;102583.34;4966252;28;20456;-75
2022/12/02 08:13:36;;;;;;;58.63;22.27;;;;;;;3.77;100.00;102570.53;4963015;28;20039;-74
2022/12/02 08:16:02;;;;;;;61.65;22.50;;;;;;;3.82;100.00;102581.59;4965016;28;20750;-73
2022/12/02 08:18:27;;;;;;;62.88;22.23;;;;;;;3.48;100.00;102581.59;4964083;28;20035;-74
2022/12/02 08:20:53;;;;;;;68.78;23.38;;;;;;;3.64;100.00;102587.81;4969214;28;20066;-74
2022/12/02 08:23:18;;;;;;;69.55;23.33;;;;;;;3.35;100.00;102577.53;4968798;28;20033;-74
2022/12/02 08:25:43;;;;;;;74.30;25.63;;;;;;;3.16;100.00;102580.13;4966602;28;20506;-74
2022/12/02 08:28:09;;;;;;;71.63;26.30;;;;;;;3.41;100.00;102584.66;4963804;28;20062;-74
2022/12/02 08:30:34;;;;;;;70.35;25.80;;;;;;;3.42;100.00;102589.09;4965019;28;20038;-75
2022/12/02 08:32:59;;;;;;;73.65;22.98;;;;;;;3.12;100.00;102579.06;4966305;28;20473;-75
2022/12/02 08:35:24;;;;;;;68.68;26.65;;;;;;;3.52;100.00;102581.81;4966001;28;20541;-74
2022/12/02 08:37:50;;;;;;;69.13;25.70;;;;;;;2.98;100.00;102586.31;4966469;28;20549;-74
2022/12/02 08:40:15;;;;;;;63.30;25.02;;;;;;;2.87;100.00;102571.72;4965125;28;20033;-74
2022/12/02 08:42:41;;;;;;;72.50;26.02;;;;;;;3.08;100.00;102572.44;4981764;28;20022;-76
2022/12/02 08:45:07;;;;;;;75.30;25.33;;;;;;;3.18;100.00;102582.59;4963535;28;20042;-75
2022/12/02 08:47:33;;;;;;;70.07;23.45;;;;;;;3.01;100.00;102575.50;4965047;28;20034;-74
2022/12/02 08:49:58;;;;;;;72.47;26.98;;;;;;;3.20;100.00;102583.97;4966424;28;20030;-74
2022/12/02 08:52:24;;;;;;;73.25;26.63;;;;;;;3.28;100.00;102577.00;4962824;28;20038;-74
2022/12/02 08:54:49;;;;;;;74.20;25.08;;;;;;;3.45;100.00;102577.44;4965766;28;20034;-75
2022/12/02 08:57:15;;;;;;;77.38;24.27;;;;;;;3.60;100.00;102578.44;4978590;28;20027;-74
2022/12/02 08:59:40;;;;;;;75.68;26.02;;;;;;;3.36;100.00;102578.34;4965453;28;20042;-75
2022/12/02 09:02:06;;;;;;;75.43;24.88;;;;;;;3.46;100.00;102576.34;4963944;28;20386;-74
2022/12/02 09:04:31;;;;;;;75.88;26.58;;;;;;;3.25;100.00;102572.06;4982928;28;20121;-75
2022/12/02 09:06:56;;;;;;;75.38;25.42;;;;;;;3.12;100.00;102573.53;4963852;28;20277;-75
2022/12/02 09:09:22;;;;;;;80.70;27.90;;;;;;;3.28;100.00;102577.00;4962971;28;20054;-77
2022/12/02 09:11:47;;;;;;;72.40;26.80;;;;;;;3.55;100.00;102581.25;4964471;28;20498;-75
2022/12/02 09:14:12;;;;;;;89.65;29.58;;;;;;;3.38;100.00;102587.19;4962575;28;20061;-75
2022/12/02 09:16:38;;;;;;;76.72;25.95;;;;;;;3.22;100.00;102578.16;4965996;28;20043;-76
2022/12/02 09:19:03;;;;;;;73.82;27.58;;;;;;;3.33;100.00;102581.69;4962098;28;20221;-75
2022/12/02 09:21:28;;;;;;;69.63;27.70;;;;;;;3.49;100.00;102593.47;4965988;28;20038;-74
2022/12/02 09:23:54;;;;;;;73.88;25.52;;;;;;;3.20;100.00;102575.66;4964116;28;20073;-74
2022/12/02 09:26:19;;;;;;;77.05;27.13;;;;;;;3.32;100.00;102582.81;4964596;28;20039;-74
2022/12/02 09:28:45;;;;;;;77.35;27.15;;;;;;;3.36;100.00;102587.47;4964376;28;20030;-74
2022/12/02 09:31:11;;;;;;;79.65;26.35;;;;;;;3.15;100.00;102583.19;4982756;28;20035;-74
2022/12/02 09:33:36;;;;;;;77.45;25.77;;;;;;;3.24;100.00;102584.22;4974630;28;20036;-75
2022/12/02 09:36:02;;;;;;;84.72;27.77;;;;;;;3.35;100.00;102582.22;4978052;28;20030;-75
2022/12/02 09:38:30;;;;;;;79.85;28.27;;;;;;;3.27;100.00;102572.59;4962870;28;20050;-75
2022/12/02 09:40:57;;;;;;;72.82;27.35;;;;;;;3.29;100.00;102575.91;4966674;28;20096;-76
2022/12/02 09:43:22;;;;;;;74.72;28.45;;;;;;;3.46;100.00;102567.22;4961949;28;20470;-74
2022/12/02 09:45:47;;;;;;;79.07;27.50;;;;;;;3.30;100.00;102572.00;4961857;28;20092;-73
2022/12/02 09:48:13;;;;;;;87.38;27.50;;;;;;;3.46;100.00;102579.09;4962903;28;20468;-74
2022/12/02 09:50:39;;;;;;;74.82;25.73;;;;;;;3.32;100.00;102572.56;4965555;28;20074;-74
2022/12/02 09:53:06;;;;;;;71.75;25.27;;;;;;;3.28;100.00;102574.25;4961884;28;20037;-74
2022/12/02 09:55:32;;;;;;;79.97;26.30;;;;;;;3.18;100.00;102582.59;4961424;28;20027;-74
2022/12/02 09:58:09;;;;;;;73.07;25.33;;;;;;;3.40;100.00;102576.66;4961138;28;20062;-74
2022/12/02 10:00:35;;;;;;;84.78;29.13;;;;;;;3.31;100.00;102581.97;4961194;28;20731;-74
2022/12/02 10:03:00;;;;;;;77.28;26.45;;;;;;;3.10;100.00;102575.75;4961981;28;20062;-74
2022/12/02 10:05:28;;;;;;;84.07;25.83;;;;;;;3.25;100.00;102566.53;4964182;28;20504;-74
2022/12/02 10:07:55;;;;;;;82.28;27.73;;;;;;;2.87;100.00;102571.72;4961593;28;20482;-75
2022/12/02 10:10:25;;;;;;;76.43;27.30;;;;;;;3.28;100.00;102568.69;4961207;28;20023;-75
2022/12/02 10:12:51;;;;;;;86.68;25.40;;;;;;;3.29;100.00;102569.53;4976857;28;20022;-75
2022/12/02 10:15:21;;;;;;;82.40;29.23;;;;;;;3.33;100.00;102568.69;4962512;28;20054;-75
2022/12/02 10:17:47;;;;;;;95.53;30.35;;;;;;;3.24;100.00;102565.66;4975144;28;20529;-75
2022/12/02 10:20:22;;;;;;;82.88;28.48;;;;;;;3.09;100.00;102562.19;4963175;28;20038;-76
2022/12/02 10:23:17;;;;;;;93.55;28.90;;;;;;;3.35;100.00;102572.00;4959610;28;20034;-76
2022/12/02 10:25:48;;;;;;;73.28;28.65;;;;;;;3.21;100.00;102566.25;4959333;28;20090;-75
2022/12/02 10:28:23;;;;;;;78.18;27.70;;;;;;;2.96;100.00;102558.13;4958356;28;20403;-75
2022/12/02 10:31:21;;;;;;;82.60;31.20;;;;;;;3.08;100.00;102557.75;4960203;28;20034;-75
2022/12/02 10:33:58;;;;;;;81.78;28.35;;;;;;;3.04;100.00;102555.56;4959289;28;20030;-75
2022/12/02 10:36:34;;;;;;;85.20;27.90;;;;;;;3.16;100.00;102554.38;4960378;28;20113;-74
2022/12/02 10:39:23;;;;;;;79.88;28.67;;;;;;;2.93;100.00;102559.53;4961280;28;20053;-75
2022/12/02 10:42:06;;;;;;;90.97;27.90;;;;;;;3.07;100.00;102547.81;4976642;28;21872;-75
2022/12/02 10:44:43;;;;;;;78.43;27.83;;;;;;;3.16;100.00;102544.16;4962964;28;20474;-74
2022/12/02 10:47:15;;;;;;;88.88;30.67;;;;;;;3.02;100.00;102546.72;4978577;28;20065;-75
2022/12/02 10:49:52;;;;;;;72.90;26.70;;;;;;;3.23;100.00;102538.31;4976798;28;20026;-74
2022/12/02 10:52:23;;;;;;;70.25;26.30;;;;;;;3.17;100.00;102545.00;4961785;28;20397;-74
2022/12/02 10:54:52;;;;;;;74.72;26.55;;;;;;;3.26;100.00;102540.47;4962454;28;20522;-74
2022/12/02 10:57:24;;;;;;;71.72;24.63;;;;;;;3.39;100.00;102530.69;4961881;28;20030;-74
2022/12/02 10:59:50;;;;;;;74.45;23.88;;;;;;;3.18;100.00;102530.88;4965022;28;20042;-74
2022/12/02 11:02:20;;;;;;;56.45;22.40;;;;;;;3.19;100.00;102528.94;4962894;28;20031;-74
2022/12/02 11:04:46;;;;;;;72.22;26.20;;;;;;;3.14;100.00;102538.09;4965099;28;20035;-75
2022/12/02 11:07:16;;;;;;;83.68;27.58;;;;;;;2.86;100.00;102536.84;4963421;28;20133;-74
2022/12/02 11:09:49;;;;;;;71.38;23.27;;;;;;;2.98;100.00;102539.28;4961731;28;20441;-74
2022/12/02 11:12:47;;;;;;;63.88;23.73;;;;;;;2.75;100.00;102530.56;4960973;28;20041;-74
2022/12/02 11:15:32;;;;;;;64.55;22.15;;;;;;;2.95;100.00;102540.69;4916451;28;20047;-74
2022/12/02 11:17:57;;;;;;;58.13;21.23;;;;;;;2.84;100.00;102536.31;4958310;28;20747;-74
2022/12/02 11:20:41;;;;;;;59.53;22.92;;;;;;;2.79;100.00;102534.41;4963293;28;20067;-74
2022/12/02 11:23:36;;;;;;;60.90;20.92;;;;;;;2.61;100.00;102541.41;4978077;28;20104;-74
2022/12/02 11:26:06;;;;;;;59.50;21.17;;;;;;;3.05;100.00;102545.31;4946647;28;20153;-73
2022/12/02 11:28:37;;;;;;;57.92;18.50;;;;;;;2.70;100.00;102543.56;4959707;28;20038;-73
2022/12/02 11:31:09;;;;;;;53.70;18.10;;;;;;;2.82;100.00;102535.78;4964174;28;20031;-73
2022/12/02 11:33:43;;;;;;;56.38;18.80;;;;;;;2.76;100.00;102534.13;4957000;28;20038;-73
2022/12/02 11:36:09;;;;;;;52.55;18.90;;;;;;;2.75;100.00;102541.63;4964187;28;20031;-75
2022/12/02 11:38:49;;;;;;;44.95;16.40;;;;;;;2.81;100.00;102542.44;4962498;28;20030;-74
2022/12/02 11:41:15;;;;;;;52.75;17.63;;;;;;;2.93;100.00;102537.38;4962419;28;20723;-74
2022/12/02 11:43:46;;;;;;;48.53;18.00;;;;;;;2.84;100.00;102534.38;4963077;28;20511;-74
2022/12/02 11:46:15;;;;;;;45.03;19.10;;;;;;;2.94;100.00;102536.25;4962959;28;20531;-74
2022/12/02 11:48:54;;;;;;;50.38;17.77;;;;;;;3.14;100.00;102537.25;4964502;28;21447;-75
2022/12/02 11:51:35;;;;;;;52.33;18.40;;;;;;;2.99;100.00;102530.72;4969017;28;20576;-74
2022/12/02 11:54:01;;;;;;;54.38;17.48;;;;;;;3.03;100.00;102531.78;4965937;28;20538;-74
2022/12/02 11:56:37;;;;;;;56.13;21.30;;;;;;;2.98;100.00;102534.56;4966189;28;20117;-74
2022/12/02 11:59:16;;;;;;;49.30;18.98;;;;;;;2.85;100.00;102533.28;4967133;28;20027;-74
2022/12/02 12:01:41;;;;;;;57.25;21.02;;;;;;;2.87;100.00;102533.00;4965734;28;20041;-75
2022/12/02 12:04:21;;;;;;;57.38;21.65;;;;;;;2.67;100.00;102527.56;4962992;28;20034;-74
2022/12/02 12:06:55;;;;;;;54.60;19.90;;;;;;;2.80;100.00;102521.41;4964122;28;20462;-74
2022/12/02 12:09:21;;;;;;;53.75;20.35;;;;;;;2.81;100.00;102523.06;4964096;28;20062;-75
2022/12/02 12:12:04;;;;;;;49.83;17.98;;;;;;;2.83;100.00;102520.84;4966475;28;20537;-74
2022/12/02 12:14:30;;;;;;;56.70;20.58;;;;;;;2.76;100.00;102518.41;4966888;28;20398;-74
2022/12/02 12:17:15;;;;;;;46.40;19.92;;;;;;;3.01;100.00;102511.03;4966049;28;20023;-73
2022/12/02 12:19:40;;;;;;;53.45;20.33;;;;;;;3.04;100.00;102516.84;4965867;28;20658;-74
2022/12/02 12:22:27;;;;;;;54.55;19.67;;;;;;;2.86;100.00;102517.50;4982492;28;20037;-73
2022/12/02 12:24:53;;;;;;;48.10;19.95;;;;;;;2.58;100.00;102513.50;4965597;28;20470;-73
2022/12/02 12:27:36;;;;;;;47.60;16.88;;;;;;;2.88;100.00;102517.22;4970454;28;20033;-73
2022/12/02 12:30:01;;;;;;;56.80;18.83;;;;;;;2.73;100.00;102509.84;4972319;28;20085;-73
2022/12/02 12:32:27;;;;;;;61.80;20.58;;;;;;;3.03;100.00;102512.41;4964416;28;20039;-73
2022/12/02 12:34:52;;;;;;;56.47;20.90;;;;;;;2.63;100.00;102502.41;4969189;28;20041;-74
2022/12/02 12:37:17;;;;;;;56.67;22.05;;;;;;;2.70;100.00;102504.84;4963343;28;20386;-73
2022/12/02 12:39:43;;;;;;;57.67;21.73;;;;;;;2.68;100.00;102496.88;4964084;28;20027;-74
2022/12/02 12:42:08;;;;;;;54.28;23.35;;;;;;;3.00;100.00;102518.53;4960439;28;20125;-73
2022/12/02 12:44:33;;;;;;;59.13;21.02;;;;;;;2.89;100.00;102503.13;4975508;28;20394;-74
2022/12/02 12:47:01;;;;;;;55.90;21.48;;;;;;;3.09;100.00;102506.84;4962278;28;20122;-75
2022/12/02 12:49:26;;;;;;;58.45;22.80;;;;;;;2.99;100.00;102503.06;4966665;28;20030;-74
2022/12/02 12:51:52;;;;;;;64.25;23.45;;;;;;;2.78;100.00;102510.66;4966136;28;20038;-74
2022/12/02 12:54:17;;;;;;;67.32;22.85;;;;;;;2.89;100.00;102502.25;4963057;28;20069;-75
2022/12/02 12:56:43;;;;;;;73.28;28.15;;;;;;;2.63;100.00;102500.47;4963276;28;20398;-75
2022/12/02 12:59:08;;;;;;;71.00;27.50;;;;;;;2.61;100.00;102499.94;4964357;28;22179;-75
2022/12/02 13:01:33;;;;;;;76.82;25.73;;;;;;;2.83;100.00;102498.72;4966079;28;20034;-74
2022/12/02 13:03:58;;;;;;;79.05;27.42;;;;;;;2.99;100.00;102504.97;4961986;28;20128;-75
2022/12/02 13:06:24;;;;;;;70.55;28.10;;;;;;;2.99;100.00;102504.97;4965213;28;20129;-74
2022/12/02 13:08:49;;;;;;;73.68;28.33;;;;;;;3.04;100.00;102505.78;4964021;28;20027;-75
2022/12/02 13:11:14;;;;;;;79.82;26.90;;;;;;;2.85;100.00;102502.03;4961278;28;20069;-74
2022/12/02 13:13:40;;;;;;;83.05;30.00;;;;;;;2.96;100.00;102509.16;4978737;28;20030;-74
2022/12/02 13:16:05;;;;;;;87.35;28.55;;;;;;;2.75;100.00;102502.91;4953542;28;20115;-75
2022/12/02 13:18:31;;;;;;;93.65;31.73;;;;;;;2.55;100.00;102498.31;4951345;28;20031;-74
2022/12/02 13:20:56;;;;;;;83.68;30.73;;;;;;;2.59;100.00;102504.94;4960360;28;20058;-75
2022/12/02 13:23:21;;;;;;;87.47;31.35;;;;;;;2.72;100.00;102499.88;4956593;28;20030;-74
2022/12/02 13:25:46;;;;;;;81.47;33.63;;;;;;;2.55;100.00;102494.69;4957803;28;20494;-74
2022/12/02 13:28:12;;;;;;;77.90;30.10;;;;;;;2.71;100.00;102496.28;4957945;28;20034;-75
2022/12/02 13:30:37;;;;;;;84.78;29.85;;;;;;;2.69;100.00;102494.94;4959662;28;20065;-74
2022/12/02 13:33:03;;;;;;;87.47;32.95;;;;;;;2.79;100.00;102501.22;4956584;28;20041;-76
2022/12/02 13:35:28;;;;;;;96.88;34.30;;;;;;;2.77;100.00;102503.44;4960353;28;20149;-73
2022/12/02 13:37:53;;;;;;;86.25;29.15;;;;;;;2.98;100.00;102506.09;4963066;28;20458;-73
2022/12/02 13:40:19;;;;;;;89.72;32.30;;;;;;;2.78;100.00;102501.50;4959537;28;20057;-74
2022/12/02 13:42:44;;;;;;;89.55;29.77;;;;;;;2.92;100.00;102502.53;4956025;28;20389;-73
2022/12/02 13:45:10;;;;;;;92.40;31.45;;;;;;;2.94;100.00;102513.31;4962300;28;20582;-73
2022/12/02 13:47:35;;;;;;;89.78;32.55;;;;;;;2.75;100.00;102511.19;4960257;28;20038;-76
2022/12/02 13:50:01;;;;;;;91.90;31.85;;;;;;;2.91;100.00;102511.94;4961438;28;20027;-74
2022/12/02 13:52:26;;;;;;;104.95;35.40;;;;;;;3.07;100.00;102514.63;4960450;28;20528;-76
2022/12/02 13:54:54;;;;;;;103.20;38.03;;;;;;;2.95;100.00;102513.03;4968134;28;20030;-75
2022/12/02 13:57:19;;;;;;;96.93;34.83;;;;;;;2.89;100.00;102516.09;4966547;28;20035;-74
2022/12/02 13:59:44;;;;;;;106.22;33.35;;;;;;;2.85;100.00;102515.84;4968469;28;20485;-74
2022/12/02 14:02:10;;;;;;;104.75;36.55;;;;;;;2.86;100.00;102517.50;4956859;28;20030;-74
2022/12/02 14:04:36;;;;;;;101.15;37.15;;;;;;;2.65;100.00;102520.34;4968445;28;20035;-74
2022/12/02 14:07:01;;;;;;;103.45;36.92;;;;;;;2.73;100.00;102521.72;4955626;28;20124;-75
2022/12/02 14:09:26;;;;;;;99.97;35.40;;;;;;;2.72;100.00;102511.78;4958189;28;20289;-77
2022/12/02 14:11:52;;;;;;;103.78;38.08;;;;;;;2.67;100.00;102520.09;4958201;28;20038;-74
2022/12/02 14:14:18;;;;;;;98.95;38.80;;;;;;;2.77;100.00;102521.97;4964274;28;20093;-76
2022/12/02 14:16:45;;;;;;;104.60;39.22;;;;;;;3.05;100.00;102521.25;4962834;28;20085;-75
2022/12/02 14:19:10;;;;;;;113.97;37.63;;;;;;;2.93;100.00;102514.41;4957355;28;20042;-75
2022/12/02 14:21:36;;;;;;;109.03;40.42;;;;;;;2.75;100.00;102519.50;4963841;28;20038;-75
2022/12/02 14:24:01;;;;;;;104.53;39.67;;;;;;;2.95;100.00;102513.03;4964017;28;20030;-75
2022/12/02 14:26:26;;;;;;;104.97;37.45;;;;;;;2.60;100.00;102512.09;4953920;28;20430;-75
2022/12/02 14:28:52;;;;;;;96.07;35.42;;;;;;;2.87;100.00;102510.03;4957148;28;20481;-75
2022/12/02 14:31:17;;;;;;;106.55;36.35;;;;;;;2.98;100.00;102511.63;4956604;28;20037;-74
2022/12/02 14:33:42;;;;;;;111.47;38.70;;;;;;;2.78;100.00;102518.09;4953140;28;20066;-75
2022/12/02 14:36:08;;;;;;;108.13;40.03;;;;;;;2.88;100.00;102515.28;4958888;28;20478;-74
2022/12/02 14:38:33;;;;;;;99.55;37.42;;;;;;;2.75;100.00;102518.69;4955899;28;20483;-74
2022/12/02 14:40:58;;;;;;;101.20;36.67;;;;;;;2.63;100.00;102519.81;4959670;28;20041;-74
2022/12/02 14:43:24;;;;;;;107.70;37.00;;;;;;;2.70;100.00;102516.78;4971849;28;20030;-74
2022/12/02 14:45:49;;;;;;;99.18;38.33;;;;;;;2.61;100.00;102515.69;4955243;28;20037;-75
2022/12/02 14:48:14;;;;;;;110.78;41.40;;;;;;;2.84;100.00;102522.47;4962766;28;20108;-75
2022/12/02 14:50:40;;;;;;;107.22;37.65;;;;;;;2.89;100.00;102518.84;4960554;28;20030;-74
2022/12/02 14:53:05;;;;;;;100.85;36.10;;;;;;;3.00;100.00;102524.06;4962714;28;20122;-75
2022/12/02 14:55:30;;;;;;;103.18;35.72;;;;;;;2.87;100.00;102521.09;4964630;28;20038;-74
2022/12/02 14:57:56;;;;;;;98.75;37.00;;;;;;;2.69;100.00;102525.34;4959843;28;20026;-75
2022/12/02 15:00:21;;;;;;;111.05;40.22;;;;;;;2.58;100.00;102525.38;4962936;28;20101;-76
2022/12/02 15:02:47;;;;;;;101.97;36.83;;;;;;;2.57;100.00;102532.03;4973028;28;20379;-74
2022/12/02 15:05:16;;;;;;;97.32;35.20;;;;;;;2.70;100.00;102532.50;4960054;28;20034;-74
2022/12/02 15:07:41;;;;;;;96.68;37.65;;;;;;;2.56;100.00;102527.59;4967089;28;20501;-75
2022/12/02 15:10:07;;;;;;;102.43;36.78;;;;;;;2.61;100.00;102538.66;4960632;28;20038;-75
2022/12/02 15:12:32;;;;;;;107.95;37.55;;;;;;;2.48;100.00;102535.66;4963366;28;20073;-75
2022/12/02 15:14:58;;;;;;;109.32;38.22;;;;;;;2.64;100.00;102540.03;4980974;28;20050;-74
2022/12/02 15:17:23;;;;;;;103.03;38.33;;;;;;;3.12;100.00;102539.47;4974145;28;20058;-75
2022/12/02 15:19:48;;;;;;;111.18;39.38;;;;;;;3.21;100.00;102537.78;4975464;28;20373;-75
2022/12/02 15:22:13;;;;;;;108.10;37.50;;;;;;;3.18;100.00;102528.09;4973558;28;20062;-74
2022/12/02 15:24:39;;;;;;;103.60;37.22;;;;;;;3.27;100.00;102539.38;4971562;28;20094;-75
2022/12/02 15:27:05;;;;;;;97.03;33.58;;;;;;;3.10;100.00;102530.63;4966700;28;20034;-74
2022/12/02 15:29:30;;;;;;;102.45;38.72;;;;;;;3.19;100.00;102529.75;4965941;28;20438;-75
2022/12/02 15:31:55;;;;;;;110.28;42.33;;;;;;;3.53;100.00;102536.41;4966535;28;20074;-75
2022/12/02 15:34:21;;;;;;;108.07;38.60;;;;;;;4.21;100.00;102539.06;4961306;28;20034;-74
2022/12/02 15:36:46;;;;;;;104.20;39.95;;;;;;;3.45;97.51;102538.69;4968035;28;20038;-74
2022/12/02 15:39:11;;;;;;;101.57;39.95;;;;;;;3.19;99.88;102540.81;4964719;28;20406;-74
2022/12/02 15:41:37;;;;;;;103.30;37.72;;;;;;;3.36;99.85;102540.41;4958264;28;20047;-74
2022/12/02 15:44:02;;;;;;;93.55;36.67;;;;;;;3.04;100.00;102546.44;4976358;28;20506;-74
2022/12/02 15:46:27;;;;;;;99.65;35.58;;;;;;;3.02;100.00;102546.72;4963377;28;20267;-74
2022/12/02 15:48:53;;;;;;;95.45;35.28;;;;;;;2.76;100.00;102542.44;4975383;28;20602;-76
2022/12/02 15:51:18;;;;;;;87.55;35.13;;;;;;;2.98;98.57;102545.66;4967064;28;20054;-78
2022/12/02 15:53:44;;;;;;;94.90;34.53;;;;;;;3.20;100.00;102547.97;4964451;28;20042;-77
2022/12/02 15:56:10;;;;;;;104.50;37.35;;;;;;;3.30;99.90;102536.03;4957431;28;20388;-76
2022/12/02 15:58:36;;;;;;;89.65;34.50;;;;;;;3.20;99.37;102531.38;4963129;28;20026;-76
2022/12/02 16:01:01;;;;;;;91.97;32.33;;;;;;;3.08;99.21;102547.53;4964854;28;20069;-75
2022/12/02 16:03:26;;;;;;;100.00;34.08;;;;;;;3.09;100.00;102540.88;4960182;28;20132;-75
2022/12/02 16:05:52;;;;;;;90.78;34.63;;;;;;;2.84;98.79;102542.66;4960120;28;20444;-76
2022/12/02 16:08:17;;;;;;;84.72;32.05;;;;;;;2.60;98.17;102547.22;4965277;28;20125;-75
2022/12/02 16:10:42;;;;;;;83.47;32.05;;;;;;;3.15;100.00;102549.97;4960595;28;20038;-75
2022/12/02 16:13:07;;;;;;;82.45;31.67;;;;;;;3.24;100.00;102543.53;4961148;28;20395;-75
2022/12/02 16:15:33;;;;;;;97.10;34.60;;;;;;;3.52;100.00;102545.81;4961012;28;20133;-76
2022/12/02 16:17:58;;;;;;;86.80;33.42;;;;;;;3.32;97.45;102546.81;4974477;28;20788;-75
2022/12/02 16:20:23;;;;;;;88.57;32.35;;;;;;;3.14;98.72;102554.69;4964858;28;20114;-75
2022/12/02 16:22:49;;;;;;;86.32;30.92;;;;;;;3.08;99.92;102550.31;4960336;28;20072;-75
2022/12/02 16:25:15;;;;;;;85.50;31.83;;;;;;;3.25;98.43;102549.91;4976381;28;20046;-75
2022/12/02 16:27:40;;;;;;;81.95;31.60;;;;;;;3.55;100.00;102545.25;4962642;28;20583;-75
2022/12/02 16:30:06;;;;;;;79.65;30.55;;;;;;;3.29;96.74;102548.22;4973955;28;20027;-77
2022/12/02 16:32:31;;;;;;;82.15;30.30;;;;;;;2.93;99.13;102551.22;4976329;28;20030;-75
2022/12/02 16:34:57;;;;;;;83.68;31.08;;;;;;;3.05;98.53;102546.16;4973120;28;20041;-75
2022/12/02 16:37:22;;;;;;;83.65;33.28;;;;;;;3.03;99.37;102551.13;4969366;28;20227;-74
2022/12/02 16:39:47;;;;;;;91.70;33.53;;;;;;;2.97;99.92;102554.22;4970288;28;20125;-75
2022/12/02 16:42:13;;;;;;;82.20;32.33;;;;;;;2.76;99.84;102553.50;4974207;28;20030;-75
2022/12/02 16:44:38;;;;;;;92.97;31.10;;;;;;;2.50;98.31;102556.38;4971880;28;20070;-75
2022/12/02 16:47:03;;;;;;;77.68;30.02;;;;;;;2.81;97.59;102561.78;4965199;28;20516;-77
2022/12/02 16:49:29;;;;;;;76.30;29.30;;;;;;;2.53;97.81;102558.59;4959528;28;20030;-75
2022/12/02 16:51:54;;;;;;;67.95;27.30;;;;;;;2.46;95.04;102558.03;4963470;28;20038;-75
2022/12/02 16:54:19;;;;;;;69.20;27.60;;;;;;;2.48;95.94;102560.53;4958969;28;20533;-75
2022/12/02 16:56:45;;;;;;;70.10;30.33;;;;;;;2.62;98.86;102564.34;4956901;28;20042;-75
2022/12/02 16:59:10;;;;;;;82.72;31.70;;;;;;;2.54;98.46;102573.22;4957364;28;20042;-75
2022/12/02 17:01:36;;;;;;;86.60;32.03;;;;;;;2.62;98.53;102569.88;4966631;28;20707;-78
2022/12/02 17:04:01;;;;;;;77.10;29.85;;;;;;;2.65;97.89;102563.78;4966132;28;20046;-76
2022/12/02 17:06:26;;;;;;;78.75;29.98;;;;;;;2.60;97.43;102572.94;4963918;28;20108;-76
2022/12/02 17:08:52;;;;;;;74.45;29.90;;;;;;;2.50;96.75;102578.47;4960756;28;20065;-76
2022/12/02 17:11:17;;;;;;;86.57;30.90;;;;;;;2.60;96.82;102575.69;4961970;28;20034;-75
2022/12/02 17:13:43;;;;;;;81.95;30.90;;;;;;;2.77;97.79;102583.63;4953990;28;20044;-75
2022/12/02 17:16:09;;;;;;;68.68;28.25;;;;;;;2.80;97.85;102587.78;4963151;28;20051;-75